Rawlins Municipal Harvey Field
KRWL : now visible

Airfield :











YOU CAN JOIN US ON...

 
LOGIN :

Register | Disclaimer

   EN    FR    IT 

 









Legend :    VFR   Marginal VFR   IFR   Intensive IFR   Very Intensive IFR
Visi :
Ceiling :
>= 8 km
>= 3000ft
5 to 8 km
1000 to 3000 ft
1500m to 5 km
500 to 1000 ft
800 to 1500m
200 to 500 ft
< 800m
< 200 ft
Symbols :   Thunderstorms  Fog  Heavy snow  Heavy precipitations  Wind > 20 kt






- Airport Elevation : 6813 ft


KRWL - Rawlins Municipal Harvey Field

CURRENT METAR :
  • 160953Z AUTO VRB03KT 10SM FEW003 M18/M21 A3002 RMK AO2 SLP267 I1000 T11831206

EXPIRED METARs :
  • 160853Z AUTO 13005KT 9SM FEW004 M19/M21 A3000 RMK AO2 SLP256 I1000 I3000 T11891211 53014
  • 160830Z AUTO 00000KT 9SM FEW005 M21/M23 A2999 RMK AO2 T12061233
  • 160753Z AUTO 00000KT 9SM CLR M19/M22 A2997 RMK AO2 SLP251 I1000 T11941222

TAF KRWL
Valid from the 16 at 07:00 until the 17 at 06:00 UTC


160633Z 1607/1706 VRB04KT P6SM SCT005
TEMPO 1607/1610 BKN005
FM161500 24008KT P6SM SKC



MET'MAP, your aeronautical weather chart ! - Copyright ORBIFLY December 2007 - Disclaimer

ORBIFLY MET'MAP TEAM :

Programming & Development : Alexandra Zaïnal
Concept & original design : Baudouin d'Aumeries
Assistance for programming : Marc-Olivier Méhu
Technical & hardware support : Manuel Goepfert

Contact : metmap@orbifly.com




SOURCES & CREDITS :

   NOAA       Earth
Advisory